createdAt,value
2022-11-08T00:00:45.361Z,5.07
2022-11-08T00:03:14.718Z,5.32
2022-11-08T00:06:01.619Z,5.40
2022-11-08T00:08:49.385Z,5.15
2022-11-08T00:11:35.860Z,5.18
2022-11-08T00:14:04.971Z,4.80
2022-11-08T00:16:34.379Z,5.15
2022-11-08T00:19:03.605Z,4.80
2022-11-08T00:21:32.984Z,4.93
2022-11-08T00:24:03.605Z,5.10
2022-11-08T00:26:32.972Z,5.30
2022-11-08T00:29:02.535Z,5.20
2022-11-08T00:31:32.097Z,5.95
2022-11-08T00:34:01.149Z,4.95
2022-11-08T00:36:30.570Z,4.88
2022-11-08T00:38:59.733Z,5.07
2022-11-08T00:41:30.588Z,5.07
2022-11-08T00:43:59.614Z,4.85
2022-11-08T00:46:29.058Z,5.00
2022-11-08T00:48:58.360Z,6.10
2022-11-08T00:51:27.940Z,5.13
2022-11-08T00:53:57.028Z,5.65
2022-11-08T00:56:26.710Z,4.70
2022-11-08T00:58:57.212Z,5.20
2022-11-08T01:01:26.786Z,5.30
2022-11-08T01:03:56.041Z,6.43
2022-11-08T01:06:27.003Z,5.72
2022-11-08T01:08:57.313Z,5.18
2022-11-08T01:11:27.672Z,4.93
2022-11-08T01:14:00.634Z,5.03
2022-11-08T01:16:32.508Z,5.57
2022-11-08T01:19:03.560Z,5.60
2022-11-08T01:21:33.097Z,6.90
2022-11-08T01:24:02.143Z,5.50
2022-11-08T01:26:31.968Z,6.10
2022-11-08T01:29:02.404Z,5.60
2022-11-08T01:31:33.326Z,6.15
2022-11-08T01:34:02.518Z,5.75
2022-11-08T01:36:32.061Z,5.70
2022-11-08T01:39:01.250Z,6.75
2022-11-08T01:41:30.554Z,5.70
2022-11-08T01:44:01.851Z,5.38
2022-11-08T01:46:42.667Z,5.25
2022-11-08T01:49:46.059Z,6.20
2022-11-08T01:52:28.704Z,6.97
2022-11-08T01:55:18.857Z,6.00
2022-11-08T01:57:53.521Z,6.13
2022-11-08T02:00:24.507Z,6.13
2022-11-08T02:02:59.021Z,6.25
2022-11-08T02:05:29.735Z,6.45
2022-11-08T02:08:04.335Z,7.05
2022-11-08T02:10:37.190Z,6.25
2022-11-08T02:13:14.201Z,6.85
2022-11-08T02:15:45.833Z,7.65
2022-11-08T02:18:17.046Z,6.25
2022-11-08T02:20:53.711Z,7.13
2022-11-08T02:23:28.178Z,6.68
2022-11-08T02:25:58.648Z,6.88
2022-11-08T02:28:28.097Z,7.05
2022-11-08T02:30:57.256Z,6.45
2022-11-08T02:33:26.535Z,6.47
2022-11-08T02:35:57.801Z,6.40
2022-11-08T02:38:28.243Z,6.28
2022-11-08T02:40:59.416Z,6.85
2022-11-08T02:43:28.895Z,6.90
2022-11-08T02:46:00.043Z,6.47
2022-11-08T02:48:29.697Z,6.88
2022-11-08T02:50:58.893Z,6.70
2022-11-08T02:53:28.532Z,7.00
2022-11-08T02:55:59.166Z,6.60
2022-11-08T02:58:29.146Z,6.63
2022-11-08T03:00:58.358Z,7.15
2022-11-08T03:03:29.606Z,7.68
2022-11-08T03:05:59.161Z,7.30
2022-11-08T03:08:28.599Z,7.13
2022-11-08T03:11:01.440Z,7.38
2022-11-08T03:13:30.748Z,7.90
2022-11-08T03:16:02.653Z,7.15
2022-11-08T03:18:32.414Z,7.13
2022-11-08T03:21:02.510Z,7.47
2022-11-08T03:23:33.039Z,7.47
2022-11-08T03:26:04.925Z,6.72
2022-11-08T03:28:34.505Z,6.50
2022-11-08T03:38:45.370Z,6.20
2022-11-08T03:41:15.797Z,7.18
2022-11-08T03:43:45.077Z,7.07
2022-11-08T03:46:14.151Z,6.53
2022-11-08T03:48:43.517Z,6.57
2022-11-08T03:51:12.975Z,6.82
2022-11-08T03:53:42.250Z,6.20
2022-11-08T03:56:11.377Z,6.68
2022-11-08T03:58:42.115Z,6.07
2022-11-08T04:01:11.217Z,5.68
2022-11-08T04:03:40.673Z,5.75
2022-11-08T04:06:10.619Z,5.57
2022-11-08T04:08:40.036Z,5.97
2022-11-08T04:11:26.350Z,6.05
2022-11-08T04:14:14.572Z,6.55
2022-11-08T04:16:43.703Z,5.78
2022-11-08T04:19:30.198Z,6.10
2022-11-08T04:21:59.445Z,5.47
2022-11-08T04:24:28.854Z,5.60
2022-11-08T04:26:57.946Z,5.28
2022-11-08T04:29:28.864Z,5.35
2022-11-08T04:31:57.886Z,5.95
2022-11-08T04:34:27.367Z,6.15
2022-11-08T04:36:57.186Z,6.45
2022-11-08T04:39:26.542Z,6.32
2022-11-08T04:42:01.731Z,6.03
2022-11-08T04:44:32.955Z,6.07
2022-11-08T04:47:01.961Z,5.88
2022-11-08T04:49:31.363Z,5.80
2022-11-08T04:52:01.480Z,6.13
2022-11-08T04:54:30.781Z,6.10
2022-11-08T04:56:59.797Z,6.43
2022-11-08T04:59:29.292Z,6.30
2022-11-08T05:01:59.903Z,7.03
2022-11-08T05:04:29.520Z,5.82
2022-11-08T05:06:59.024Z,6.15
2022-11-08T05:09:28.470Z,5.53
2022-11-08T05:11:57.523Z,7.13
2022-11-08T05:14:27.257Z,6.20
2022-11-08T05:16:56.518Z,6.53
2022-11-08T05:19:44.829Z,6.85
2022-11-08T05:22:31.399Z,6.15
2022-11-08T05:25:00.877Z,6.70
2022-11-08T05:27:30.020Z,6.90
2022-11-08T05:29:59.503Z,6.85
2022-11-08T05:32:28.660Z,5.40
2022-11-08T05:34:59.617Z,6.50
2022-11-08T05:37:28.810Z,6.68
2022-11-08T05:39:58.226Z,6.75
2022-11-08T05:42:27.390Z,5.55
2022-11-08T05:44:56.930Z,5.90
2022-11-08T05:47:26.122Z,5.93
2022-11-08T05:49:55.682Z,5.95
2022-11-08T05:52:26.167Z,6.18
2022-11-08T05:54:55.553Z,6.15
2022-11-08T05:57:24.574Z,6.97
2022-11-08T05:59:53.970Z,6.07
2022-11-08T06:02:23.358Z,6.18
2022-11-08T06:04:52.837Z,5.75
2022-11-08T06:07:21.812Z,6.10
2022-11-08T06:09:52.792Z,5.70
2022-11-08T06:12:22.034Z,5.85
2022-11-08T06:14:51.560Z,6.15
2022-11-08T06:17:23.809Z,5.90
2022-11-08T06:19:56.991Z,5.72
2022-11-08T06:22:26.085Z,5.50
2022-11-08T06:24:56.780Z,7.80
2022-11-08T06:27:25.892Z,6.90
2022-11-08T06:29:55.324Z,11.43
2022-11-08T06:32:24.394Z,7.18
2022-11-08T06:34:53.712Z,11.48
2022-11-08T06:37:22.870Z,14.98
2022-11-08T06:39:52.330Z,12.05
2022-11-08T06:42:23.018Z,8.23
2022-11-08T06:44:52.542Z,9.05
2022-11-08T06:47:21.684Z,6.82
2022-11-08T06:49:51.012Z,5.40
2022-11-08T06:52:20.056Z,5.70
2022-11-08T06:54:49.416Z,5.22
2022-11-08T06:57:18.589Z,5.15
2022-11-08T06:59:49.476Z,4.40
2022-11-08T07:02:18.936Z,4.40
2022-11-08T07:04:48.691Z,4.50
2022-11-08T07:07:17.846Z,4.10
2022-11-08T07:09:47.251Z,4.18
2022-11-08T07:12:16.458Z,4.22
2022-11-08T07:14:46.052Z,5.30
2022-11-08T07:17:16.760Z,4.82
2022-11-08T07:19:46.223Z,4.53
2022-11-08T07:22:15.321Z,4.45
2022-11-08T07:24:44.830Z,5.28
2022-11-08T07:27:13.900Z,4.68
2022-11-08T07:29:43.290Z,4.07
2022-11-08T07:32:12.435Z,3.95
2022-11-08T07:34:43.177Z,4.50
2022-11-08T07:37:12.216Z,3.75
2022-11-08T07:39:41.613Z,4.20
2022-11-08T07:42:10.709Z,3.70
2022-11-08T07:44:40.015Z,4.20
2022-11-08T07:47:09.039Z,3.83
2022-11-08T07:49:38.484Z,4.00
2022-11-08T07:52:08.923Z,3.85
2022-11-08T07:54:38.393Z,3.65
2022-11-08T07:57:07.376Z,4.45
2022-11-08T07:59:36.823Z,4.40
2022-11-08T08:02:06.177Z,3.50
2022-11-08T08:04:35.886Z,4.18
2022-11-08T08:07:05.409Z,3.75
2022-11-08T08:09:36.247Z,3.38
2022-11-08T08:12:05.682Z,4.70
2022-11-08T08:14:35.018Z,3.67
2022-11-08T08:17:04.342Z,4.88
2022-11-08T08:19:33.985Z,4.03
2022-11-08T08:22:02.999Z,4.30
2022-11-08T08:24:32.487Z,3.75
2022-11-08T08:27:02.944Z,4.28
2022-11-08T08:29:32.342Z,4.30
2022-11-08T08:32:01.422Z,3.70
2022-11-08T08:34:31.334Z,3.63
2022-11-08T08:37:00.469Z,4.03
2022-11-08T08:39:29.813Z,4.18
2022-11-08T08:41:58.915Z,14.23
2022-11-08T08:44:29.661Z,8.57
2022-11-08T08:46:58.722Z,5.55
2022-11-08T08:49:28.265Z,4.85
2022-11-08T08:51:57.289Z,5.25
2022-11-08T08:54:29.401Z,4.72
2022-11-08T08:56:58.771Z,6.38
2022-11-08T09:02:20.491Z,4.30
2022-11-08T09:04:49.791Z,4.38
2022-11-08T09:07:18.873Z,4.68
2022-11-08T09:09:48.275Z,4.35
2022-11-08T09:12:17.423Z,3.58
2022-11-08T09:14:48.412Z,4.25
2022-11-08T09:17:17.551Z,3.95
2022-11-08T09:19:47.439Z,5.68
2022-11-08T09:22:16.597Z,5.00
2022-11-08T09:24:45.954Z,4.80
2022-11-08T09:27:15.305Z,3.88
2022-11-08T09:29:44.629Z,4.20
2022-11-08T09:32:15.041Z,4.90
2022-11-08T09:34:44.328Z,4.47
2022-11-08T09:37:13.391Z,4.30
2022-11-08T09:39:42.809Z,4.55
2022-11-08T09:42:40.786Z,3.67
2022-11-08T09:45:23.943Z,3.75
2022-11-08T09:48:04.876Z,5.45
2022-11-08T09:50:40.032Z,4.97
2022-11-08T09:53:18.900Z,3.42
2022-11-08T09:55:53.848Z,4.13
2022-11-08T09:58:29.503Z,3.72
2022-11-08T10:00:59.888Z,3.83
2022-11-08T10:03:31.635Z,4.47
2022-11-08T10:06:37.302Z,3.45
2022-11-08T10:09:20.530Z,4.68
2022-11-08T10:12:04.227Z,4.28
2022-11-08T10:14:53.492Z,3.38
2022-11-08T10:17:53.430Z,3.50
2022-11-08T10:20:35.837Z,3.65
2022-11-08T10:23:19.479Z,3.85
2022-11-08T10:25:51.670Z,3.20
2022-11-08T10:28:29.570Z,3.40
2022-11-08T10:30:58.778Z,3.88
2022-11-08T10:33:33.457Z,3.95
2022-11-08T10:36:09.205Z,3.55
2022-11-08T10:38:46.946Z,3.80
2022-11-08T10:41:22.776Z,4.55
2022-11-08T10:43:56.745Z,3.30
2022-11-08T10:46:41.469Z,3.45
2022-11-08T10:49:22.211Z,4.10
2022-11-08T10:51:55.030Z,5.20
2022-11-08T10:54:55.424Z,4.07
2022-11-08T10:57:35.597Z,3.15
2022-11-08T11:00:26.120Z,3.33
2022-11-08T11:02:57.824Z,3.30
2022-11-08T11:05:33.463Z,3.08
2022-11-08T11:08:16.599Z,4.60
2022-11-08T11:10:47.807Z,3.60
2022-11-08T11:13:22.799Z,3.50
2022-11-08T11:15:54.714Z,3.58
2022-11-08T11:18:32.956Z,2.90
2022-11-08T11:21:10.980Z,3.28
2022-11-08T11:23:45.133Z,3.53
2022-11-08T11:26:30.409Z,3.63
2022-11-08T11:29:21.487Z,3.53
2022-11-08T11:31:53.160Z,3.30
2022-11-08T11:34:44.323Z,2.83
2022-11-08T11:37:23.962Z,4.20
2022-11-08T11:40:22.386Z,3.85
2022-11-08T11:43:03.011Z,5.78
2022-11-08T11:45:37.896Z,2.90
2022-11-08T11:48:15.483Z,3.53
2022-11-08T11:50:48.665Z,2.88
2022-11-08T11:53:22.890Z,3.13
2022-11-08T11:56:27.235Z,3.10
2022-11-08T11:59:20.593Z,3.85
2022-11-08T12:02:05.441Z,3.35
2022-11-08T12:04:47.191Z,3.78
2022-11-08T12:07:23.043Z,3.63
2022-11-08T12:10:08.298Z,3.38
2022-11-08T12:12:51.496Z,4.05
2022-11-08T12:15:27.095Z,3.60
2022-11-08T12:18:11.341Z,3.65
2022-11-08T12:20:52.896Z,3.50
2022-11-08T12:23:38.630Z,3.55
2022-11-08T12:26:18.744Z,3.58
2022-11-08T12:29:01.579Z,3.25
2022-11-08T12:31:34.800Z,4.10
2022-11-08T12:34:20.144Z,3.92
2022-11-08T12:37:03.495Z,3.03
2022-11-08T12:39:41.369Z,3.40
2022-11-08T12:42:32.438Z,3.45
2022-11-08T12:45:41.430Z,3.05
2022-11-08T12:48:21.546Z,3.25
2022-11-08T12:51:01.507Z,3.30
2022-11-08T12:53:55.180Z,3.20
2022-11-08T12:56:28.750Z,3.40
2022-11-08T12:58:59.066Z,3.03
2022-11-08T13:01:29.847Z,3.30
2022-11-08T13:04:27.018Z,3.40
2022-11-08T13:07:01.131Z,3.40
2022-11-08T13:09:41.201Z,3.42
2022-11-08T13:12:27.365Z,3.90
2022-11-08T13:14:56.905Z,3.60
2022-11-08T13:17:28.708Z,3.35
2022-11-08T13:20:05.120Z,3.45
2022-11-08T13:23:02.754Z,3.83
2022-11-08T13:25:39.359Z,3.60
2022-11-08T13:28:40.540Z,5.13
2022-11-08T13:31:29.262Z,3.80
2022-11-08T13:34:13.443Z,4.60
2022-11-08T13:36:56.830Z,4.70
2022-11-08T13:39:48.959Z,3.63
2022-11-08T13:42:38.935Z,4.20
2022-11-08T13:45:27.367Z,3.92
2022-11-08T13:47:59.704Z,3.35
2022-11-08T13:50:52.821Z,3.25
2022-11-08T13:53:45.847Z,4.20
2022-11-08T13:56:44.649Z,4.50
2022-11-08T13:59:50.832Z,3.88
2022-11-08T14:02:42.387Z,3.72
2022-11-08T14:05:33.537Z,3.83
2022-11-08T14:08:28.641Z,4.25
2022-11-08T14:11:22.841Z,4.53
2022-11-08T14:14:15.405Z,3.50
2022-11-08T14:16:58.438Z,3.67
2022-11-08T14:19:32.056Z,3.80
2022-11-08T14:22:05.045Z,3.67
2022-11-08T14:24:39.181Z,3.55
2022-11-08T14:27:08.678Z,4.50
2022-11-08T14:29:37.799Z,3.20
2022-11-08T14:32:16.405Z,3.80
2022-11-08T14:34:46.246Z,4.05
2022-11-08T14:37:23.063Z,4.45
2022-11-08T14:39:54.475Z,3.85
2022-11-08T14:42:26.056Z,3.58
2022-11-08T14:44:58.935Z,5.38
2022-11-08T14:47:31.128Z,5.43
2022-11-08T14:50:00.796Z,5.13
2022-11-08T14:52:31.731Z,5.45
2022-11-08T14:55:05.772Z,3.97
2022-11-08T14:57:37.705Z,3.67
2022-11-08T15:00:16.047Z,3.80
2022-11-08T15:02:48.323Z,3.88
2022-11-08T15:05:39.856Z,3.88
2022-11-08T15:08:18.723Z,15.07
2022-11-08T15:11:01.805Z,4.90
2022-11-08T15:13:35.135Z,7.03
2022-11-08T15:16:07.339Z,20.00
2022-11-08T15:18:39.500Z,9.07
2022-11-08T15:21:23.386Z,6.78
2022-11-08T15:23:54.572Z,9.50
2022-11-08T15:26:28.397Z,11.15
2022-11-08T15:29:03.863Z,19.40
2022-11-08T15:31:36.598Z,8.32
2022-11-08T15:34:06.508Z,8.65
2022-11-08T15:36:37.545Z,9.70
2022-11-08T15:39:08.171Z,11.50
2022-11-08T15:41:41.592Z,9.10
2022-11-08T15:44:23.087Z,7.68
2022-11-08T15:46:53.512Z,8.52
2022-11-08T15:49:24.736Z,8.63
2022-11-08T15:51:55.418Z,11.45
2022-11-08T15:54:26.342Z,13.95
2022-11-08T15:56:58.083Z,34.05
2022-11-08T15:59:31.035Z,11.48
2022-11-08T16:02:02.890Z,7.55
2022-11-08T16:04:32.764Z,10.45
2022-11-08T16:07:01.924Z,24.73
2022-11-08T16:09:31.309Z,28.23
2022-11-08T16:12:03.990Z,31.80
2022-11-08T16:14:33.564Z,10.43
2022-11-08T16:17:02.803Z,22.45
2022-11-08T16:19:32.403Z,9.18
2022-11-08T16:22:07.262Z,13.13
2022-11-08T16:24:36.709Z,11.05
2022-11-08T16:27:07.405Z,8.80
2022-11-08T16:29:37.277Z,16.67
2022-11-08T16:32:06.799Z,9.35
2022-11-08T16:34:36.199Z,7.93
2022-11-08T16:37:05.255Z,14.02
2022-11-08T16:39:35.527Z,10.10
2022-11-08T16:42:06.525Z,8.75
2022-11-08T16:44:35.995Z,70.43
2022-11-08T16:47:05.206Z,22.90
2022-11-08T16:49:34.850Z,8.18
2022-11-08T16:52:04.055Z,9.25
2022-11-08T16:54:33.404Z,10.07
2022-11-08T16:57:33.028Z,7.80
2022-11-08T16:59:53.310Z,7.57
2022-11-08T17:02:30.549Z,7.78
2022-11-08T17:04:59.896Z,7.93
2022-11-08T17:07:30.438Z,7.85
2022-11-08T17:09:59.809Z,7.78
2022-11-08T17:12:28.870Z,6.82
2022-11-08T17:14:59.770Z,86.55
2022-11-08T17:17:28.898Z,111.53
2022-11-08T17:19:58.615Z,45.85
2022-11-08T17:22:27.738Z,53.53
2022-11-08T17:24:57.104Z,18.10
2022-11-08T17:27:26.305Z,10.60
2022-11-08T17:29:55.723Z,17.15
2022-11-08T17:32:26.335Z,9.65
2022-11-08T17:34:55.744Z,9.57
2022-11-08T17:37:25.143Z,13.57
2022-11-08T17:39:55.548Z,9.38
2022-11-08T17:42:25.094Z,10.07
2022-11-08T17:44:56.811Z,10.25
2022-11-08T17:47:28.520Z,8.40
2022-11-08T17:49:58.019Z,8.40
2022-11-08T17:52:27.195Z,9.60
2022-11-08T17:54:56.694Z,9.00
2022-11-08T17:57:25.782Z,9.35
2022-11-08T17:59:55.201Z,8.35
2022-11-08T18:02:25.251Z,14.07
2022-11-08T18:04:57.333Z,44.28
2022-11-08T18:07:26.376Z,17.25
2022-11-08T18:09:55.831Z,14.52
2022-11-08T18:12:25.277Z,12.75
2022-11-08T18:14:55.911Z,11.63
2022-11-08T18:17:27.078Z,11.70
2022-11-08T18:19:57.937Z,11.02
2022-11-08T18:22:26.991Z,13.07
2022-11-08T18:24:56.621Z,13.43
2022-11-08T18:27:25.757Z,12.10
2022-11-08T18:29:55.275Z,10.80
2022-11-08T18:32:24.381Z,10.48
2022-11-08T18:34:53.889Z,11.63
2022-11-08T18:37:24.477Z,10.98
2022-11-08T18:39:53.835Z,10.43
2022-11-08T18:42:22.953Z,11.63
2022-11-08T18:44:52.551Z,9.98
2022-11-08T18:47:23.460Z,10.52
2022-11-08T18:49:55.562Z,12.43
2022-11-08T18:52:26.403Z,11.80
2022-11-08T18:54:55.734Z,10.82
2022-11-08T18:57:24.710Z,11.45
2022-11-08T18:59:59.762Z,11.63
2022-11-08T19:02:30.002Z,10.50
2022-11-08T19:05:00.553Z,10.95
2022-11-08T19:07:31.592Z,10.27
2022-11-08T19:10:02.638Z,17.30
2022-11-08T19:12:31.765Z,12.68
2022-11-08T19:15:02.400Z,11.38
2022-11-08T19:17:31.964Z,13.77
2022-11-08T19:20:01.399Z,13.13
2022-11-08T19:22:32.113Z,15.32
2022-11-08T19:25:01.493Z,12.52
2022-11-08T19:27:30.812Z,10.93
2022-11-08T19:30:00.630Z,12.02
2022-11-08T19:32:30.522Z,11.18
2022-11-08T19:34:59.850Z,11.68
2022-11-08T19:37:30.514Z,12.82
2022-11-08T19:40:00.661Z,11.75
2022-11-08T19:42:29.944Z,11.13
2022-11-08T19:44:59.485Z,11.80
2022-11-08T19:47:29.391Z,11.40
2022-11-08T19:49:58.796Z,12.32
2022-11-08T19:52:30.317Z,11.38
2022-11-08T19:55:02.353Z,12.00
2022-11-08T19:57:35.207Z,12.63
2022-11-08T20:00:10.797Z,11.70
2022-11-08T20:05:14.123Z,11.25
2022-11-08T20:07:48.181Z,11.35
2022-11-08T20:10:18.073Z,11.38
2022-11-08T20:12:48.206Z,11.82
2022-11-08T20:15:20.498Z,11.77
2022-11-08T20:17:49.628Z,12.55
2022-11-08T20:20:20.185Z,12.10
2022-11-08T20:22:50.714Z,11.93
2022-11-08T20:25:20.317Z,12.38
2022-11-08T20:27:49.469Z,12.13
2022-11-08T20:30:19.147Z,11.50
2022-11-08T20:32:48.155Z,12.52
2022-11-08T20:35:23.074Z,12.02
2022-11-08T20:37:57.681Z,11.32
2022-11-08T20:40:27.078Z,11.60
2022-11-08T20:42:56.144Z,11.15
2022-11-08T20:45:25.595Z,13.85
2022-11-08T20:47:54.631Z,13.88
2022-11-08T20:50:24.123Z,12.88
2022-11-08T20:52:54.566Z,13.60
2022-11-08T20:55:25.237Z,12.38
2022-11-08T20:57:54.234Z,14.35
2022-11-08T21:00:37.968Z,14.35
2022-11-08T21:03:17.765Z,14.38
2022-11-08T21:05:52.443Z,13.68
2022-11-08T21:11:14.013Z,14.23
2022-11-08T21:13:44.864Z,16.45
2022-11-08T21:16:29.181Z,14.68
2022-11-08T21:18:58.971Z,17.27
2022-11-08T21:21:28.597Z,17.70
2022-11-08T21:23:59.228Z,18.80
2022-11-08T21:26:28.721Z,22.30
2022-11-08T21:28:57.924Z,19.55
2022-11-08T21:31:27.545Z,20.27
2022-11-08T21:33:56.828Z,19.67
2022-11-08T21:36:27.055Z,19.02
2022-11-08T21:38:56.183Z,19.27
2022-11-08T21:41:27.075Z,19.80
2022-11-08T21:43:56.289Z,17.83
2022-11-08T21:46:27.712Z,17.92
2022-11-08T21:48:58.718Z,16.88
2022-11-08T21:51:30.472Z,15.02
2022-11-08T21:54:00.622Z,15.57
2022-11-08T21:56:34.290Z,15.40
2022-11-08T21:59:04.480Z,15.43
2022-11-08T22:01:34.032Z,20.42
2022-11-08T22:04:03.186Z,16.20
2022-11-08T22:06:32.611Z,17.38
2022-11-08T22:09:01.810Z,15.20
2022-11-08T22:11:32.798Z,13.30
2022-11-08T22:14:02.426Z,14.38
2022-11-08T22:16:31.884Z,13.82
2022-11-08T22:19:05.657Z,14.27
2022-11-08T22:21:39.245Z,14.48
2022-11-08T22:24:12.647Z,12.82
2022-11-08T22:26:43.989Z,13.93
2022-11-08T22:29:13.812Z,13.88
2022-11-08T22:31:44.026Z,13.98
2022-11-08T22:34:13.306Z,13.07
2022-11-08T22:36:45.610Z,12.90
2022-11-08T22:39:15.903Z,13.77
2022-11-08T22:41:48.375Z,11.40
2022-11-08T22:44:18.104Z,12.32
2022-11-08T22:46:49.223Z,12.35
2022-11-08T22:49:18.698Z,12.02
2022-11-08T22:51:48.103Z,12.52
2022-11-08T22:54:17.355Z,13.13
2022-11-08T22:56:48.382Z,12.75
2022-11-08T22:59:17.625Z,11.45
2022-11-08T23:01:47.161Z,10.95
2022-11-08T23:04:16.600Z,10.57
2022-11-08T23:06:46.055Z,10.25
2022-11-08T23:09:15.477Z,10.68
2022-11-08T23:12:02.444Z,10.50
2022-11-08T23:14:50.662Z,11.05
2022-11-08T23:17:20.077Z,10.38
2022-11-08T23:20:06.708Z,10.95
2022-11-08T23:22:53.217Z,10.77
2022-11-08T23:28:09.383Z,11.02
2022-11-08T23:30:58.569Z,11.65
2022-11-08T23:33:28.178Z,10.60
2022-11-08T23:36:12.912Z,10.00
2022-11-08T23:38:42.619Z,10.43
2022-11-08T23:41:29.764Z,10.10
2022-11-08T23:44:16.702Z,10.52
2022-11-08T23:46:47.406Z,10.10
2022-11-08T23:49:16.976Z,9.95
2022-11-08T23:51:46.466Z,10.98
2022-11-08T23:54:16.211Z,10.93
2022-11-08T23:56:45.966Z,10.52
2022-11-08T23:59:16.441Z,11.23
